sensor_id;sensor_type;location;lat;lon;timestamp;P1;durP1;ratioP1;P2;durP2;ratioP2
51238;SDS011;38154;47.548;18.828;2023-07-13T00:00:11;1.42;;;1.33;;
51238;SDS011;38154;47.548;18.828;2023-07-13T00:02:41;1.27;;;0.93;;
51238;SDS011;38154;47.548;18.828;2023-07-13T00:05:08;4.55;;;1.40;;
51238;SDS011;38154;47.548;18.828;2023-07-13T00:07:34;5.85;;;1.40;;
51238;SDS011;38154;47.548;18.828;2023-07-13T00:10:01;1.35;;;1.10;;
51238;SDS011;38154;47.548;18.828;2023-07-13T00:12:30;1.77;;;1.10;;
51238;SDS011;38154;47.548;18.828;2023-07-13T00:15:02;1.00;;;0.73;;
51238;SDS011;38154;47.548;18.828;2023-07-13T00:17:31;2.75;;;0.98;;
51238;SDS011;38154;47.548;18.828;2023-07-13T00:19:57;1.02;;;0.82;;
51238;SDS011;38154;47.548;18.828;2023-07-13T00:24:51;0.88;;;0.75;;
51238;SDS011;38154;47.548;18.828;2023-07-13T00:27:18;0.70;;;0.60;;
51238;SDS011;38154;47.548;18.828;2023-07-13T00:29:44;0.70;;;0.62;;
51238;SDS011;38154;47.548;18.828;2023-07-13T00:32:10;0.77;;;0.77;;
51238;SDS011;38154;47.548;18.828;2023-07-13T00:34:37;0.40;;;0.40;;
51238;SDS011;38154;47.548;18.828;2023-07-13T00:37:04;0.40;;;0.40;;
51238;SDS011;38154;47.548;18.828;2023-07-13T00:39:35;1.00;;;0.98;;
51238;SDS011;38154;47.548;18.828;2023-07-13T00:42:02;1.62;;;0.55;;
51238;SDS011;38154;47.548;18.828;2023-07-13T00:44:28;0.65;;;0.40;;
51238;SDS011;38154;47.548;18.828;2023-07-13T00:46:54;0.47;;;0.47;;
51238;SDS011;38154;47.548;18.828;2023-07-13T00:51:49;1.17;;;0.43;;
51238;SDS011;38154;47.548;18.828;2023-07-13T00:54:24;0.85;;;0.70;;
51238;SDS011;38154;47.548;18.828;2023-07-13T00:56:53;4.30;;;0.68;;
51238;SDS011;38154;47.548;18.828;2023-07-13T00:59:23;0.77;;;0.40;;
51238;SDS011;38154;47.548;18.828;2023-07-13T01:01:49;0.30;;;0.30;;
51238;SDS011;38154;47.548;18.828;2023-07-13T01:06:42;0.95;;;0.40;;
51238;SDS011;38154;47.548;18.828;2023-07-13T01:09:09;2.28;;;0.50;;
51238;SDS011;38154;47.548;18.828;2023-07-13T01:11:37;2.15;;;0.50;;
51238;SDS011;38154;47.548;18.828;2023-07-13T01:16:30;0.75;;;0.50;;
51238;SDS011;38154;47.548;18.828;2023-07-13T01:18:57;0.50;;;0.50;;
51238;SDS011;38154;47.548;18.828;2023-07-13T01:21:25;0.82;;;0.43;;
51238;SDS011;38154;47.548;18.828;2023-07-13T01:23:52;0.50;;;0.43;;
51238;SDS011;38154;47.548;18.828;2023-07-13T01:26:18;0.50;;;0.50;;
51238;SDS011;38154;47.548;18.828;2023-07-13T01:28:43;1.87;;;0.70;;
51238;SDS011;38154;47.548;18.828;2023-07-13T01:31:10;1.83;;;0.40;;
51238;SDS011;38154;47.548;18.828;2023-07-13T01:36:02;0.40;;;0.37;;
51238;SDS011;38154;47.548;18.828;2023-07-13T01:38:28;2.37;;;0.57;;
51238;SDS011;38154;47.548;18.828;2023-07-13T01:40:54;0.47;;;0.40;;
51238;SDS011;38154;47.548;18.828;2023-07-13T01:43:20;1.15;;;0.45;;
51238;SDS011;38154;47.548;18.828;2023-07-13T01:48:12;1.15;;;0.47;;
51238;SDS011;38154;47.548;18.828;2023-07-13T01:50:39;0.60;;;0.60;;
51238;SDS011;38154;47.548;18.828;2023-07-13T01:53:05;1.45;;;0.57;;
51238;SDS011;38154;47.548;18.828;2023-07-13T01:55:31;1.08;;;0.60;;
51238;SDS011;38154;47.548;18.828;2023-07-13T01:57:57;0.62;;;0.50;;
51238;SDS011;38154;47.548;18.828;2023-07-13T02:00:23;0.40;;;0.40;;
51238;SDS011;38154;47.548;18.828;2023-07-13T02:02:50;1.98;;;0.93;;
51238;SDS011;38154;47.548;18.828;2023-07-13T02:07:42;1.15;;;0.73;;
51238;SDS011;38154;47.548;18.828;2023-07-13T02:10:08;0.57;;;0.47;;
51238;SDS011;38154;47.548;18.828;2023-07-13T02:12:36;0.62;;;0.37;;
51238;SDS011;38154;47.548;18.828;2023-07-13T02:15:02;1.58;;;1.05;;
51238;SDS011;38154;47.548;18.828;2023-07-13T02:17:29;0.37;;;0.37;;
51238;SDS011;38154;47.548;18.828;2023-07-13T02:19:55;1.95;;;0.50;;
51238;SDS011;38154;47.548;18.828;2023-07-13T02:22:21;0.68;;;0.40;;
51238;SDS011;38154;47.548;18.828;2023-07-13T02:24:48;2.10;;;1.20;;
51238;SDS011;38154;47.548;18.828;2023-07-13T02:27:14;1.20;;;0.90;;
51238;SDS011;38154;47.548;18.828;2023-07-13T02:29:40;0.73;;;0.45;;
51238;SDS011;38154;47.548;18.828;2023-07-13T02:32:06;3.90;;;0.40;;
51238;SDS011;38154;47.548;18.828;2023-07-13T02:36:58;0.62;;;0.62;;
51238;SDS011;38154;47.548;18.828;2023-07-13T02:39:24;2.22;;;1.15;;
51238;SDS011;38154;47.548;18.828;2023-07-13T02:41:50;0.60;;;0.57;;
51238;SDS011;38154;47.548;18.828;2023-07-13T02:44:15;0.70;;;0.70;;
51238;SDS011;38154;47.548;18.828;2023-07-13T02:46:41;3.15;;;0.88;;
51238;SDS011;38154;47.548;18.828;2023-07-13T02:49:07;1.83;;;1.05;;
51238;SDS011;38154;47.548;18.828;2023-07-13T02:51:34;1.85;;;1.12;;
51238;SDS011;38154;47.548;18.828;2023-07-13T02:54:00;1.45;;;1.35;;
51238;SDS011;38154;47.548;18.828;2023-07-13T02:56:28;0.80;;;0.80;;
51238;SDS011;38154;47.548;18.828;2023-07-13T02:58:55;1.33;;;0.88;;
51238;SDS011;38154;47.548;18.828;2023-07-13T03:01:22;1.40;;;1.20;;
51238;SDS011;38154;47.548;18.828;2023-07-13T03:06:15;1.90;;;1.15;;
51238;SDS011;38154;47.548;18.828;2023-07-13T03:08:42;1.77;;;1.25;;
51238;SDS011;38154;47.548;18.828;2023-07-13T03:11:10;1.70;;;1.40;;
51238;SDS011;38154;47.548;18.828;2023-07-13T03:13:39;4.10;;;1.20;;
51238;SDS011;38154;47.548;18.828;2023-07-13T03:16:06;1.37;;;1.08;;
51238;SDS011;38154;47.548;18.828;2023-07-13T03:18:33;3.72;;;1.45;;
51238;SDS011;38154;47.548;18.828;2023-07-13T03:20:59;1.50;;;1.27;;
51238;SDS011;38154;47.548;18.828;2023-07-13T03:23:25;1.95;;;1.00;;
51238;SDS011;38154;47.548;18.828;2023-07-13T03:26:00;2.65;;;1.35;;
51238;SDS011;38154;47.548;18.828;2023-07-13T03:28:45;3.15;;;1.58;;
51238;SDS011;38154;47.548;18.828;2023-07-13T03:31:14;1.27;;;1.00;;
51238;SDS011;38154;47.548;18.828;2023-07-13T03:33:45;2.42;;;1.02;;
51238;SDS011;38154;47.548;18.828;2023-07-13T03:36:15;1.42;;;0.95;;
51238;SDS011;38154;47.548;18.828;2023-07-13T03:38:47;1.67;;;1.25;;
51238;SDS011;38154;47.548;18.828;2023-07-13T03:41:14;1.92;;;1.30;;
51238;SDS011;38154;47.548;18.828;2023-07-13T03:43:41;1.45;;;1.20;;
51238;SDS011;38154;47.548;18.828;2023-07-13T03:46:07;3.22;;;1.42;;
51238;SDS011;38154;47.548;18.828;2023-07-13T03:48:33;1.25;;;0.95;;
51238;SDS011;38154;47.548;18.828;2023-07-13T03:50:59;4.62;;;1.23;;
51238;SDS011;38154;47.548;18.828;2023-07-13T03:53:25;1.90;;;1.00;;
51238;SDS011;38154;47.548;18.828;2023-07-13T03:55:51;2.53;;;1.50;;
51238;SDS011;38154;47.548;18.828;2023-07-13T03:58:25;1.33;;;1.05;;
51238;SDS011;38154;47.548;18.828;2023-07-13T04:00:54;2.90;;;1.40;;
51238;SDS011;38154;47.548;18.828;2023-07-13T04:03:20;3.97;;;1.70;;
51238;SDS011;38154;47.548;18.828;2023-07-13T04:05:46;1.58;;;1.23;;
51238;SDS011;38154;47.548;18.828;2023-07-13T04:08:12;1.73;;;1.08;;
51238;SDS011;38154;47.548;18.828;2023-07-13T04:10:38;1.70;;;1.10;;
51238;SDS011;38154;47.548;18.828;2023-07-13T04:13:04;3.17;;;1.40;;
51238;SDS011;38154;47.548;18.828;2023-07-13T04:15:31;1.27;;;0.90;;
51238;SDS011;38154;47.548;18.828;2023-07-13T04:17:57;2.25;;;1.30;;
51238;SDS011;38154;47.548;18.828;2023-07-13T04:20:26;3.65;;;1.55;;
51238;SDS011;38154;47.548;18.828;2023-07-13T04:22:52;2.35;;;1.60;;
51238;SDS011;38154;47.548;18.828;2023-07-13T04:25:21;2.50;;;1.77;;
51238;SDS011;38154;47.548;18.828;2023-07-13T04:27:47;5.32;;;1.50;;
51238;SDS011;38154;47.548;18.828;2023-07-13T04:30:13;3.28;;;2.10;;
51238;SDS011;38154;47.548;18.828;2023-07-13T04:32:39;3.00;;;1.37;;
51238;SDS011;38154;47.548;18.828;2023-07-13T04:35:05;9.18;;;1.90;;
51238;SDS011;38154;47.548;18.828;2023-07-13T04:37:31;3.22;;;2.12;;
51238;SDS011;38154;47.548;18.828;2023-07-13T04:39:57;5.15;;;2.30;;
51238;SDS011;38154;47.548;18.828;2023-07-13T04:42:23;3.08;;;2.03;;
51238;SDS011;38154;47.548;18.828;2023-07-13T04:44:49;2.55;;;1.90;;
51238;SDS011;38154;47.548;18.828;2023-07-13T04:49:41;2.70;;;1.80;;
51238;SDS011;38154;47.548;18.828;2023-07-13T04:52:07;9.40;;;2.58;;
51238;SDS011;38154;47.548;18.828;2023-07-13T04:57:00;6.70;;;3.08;;
51238;SDS011;38154;47.548;18.828;2023-07-13T05:01:52;4.97;;;3.17;;
51238;SDS011;38154;47.548;18.828;2023-07-13T05:04:18;8.63;;;3.42;;
51238;SDS011;38154;47.548;18.828;2023-07-13T05:06:44;5.70;;;3.12;;
51238;SDS011;38154;47.548;18.828;2023-07-13T05:09:10;4.35;;;2.42;;
51238;SDS011;38154;47.548;18.828;2023-07-13T05:11:38;2.75;;;2.05;;
51238;SDS011;38154;47.548;18.828;2023-07-13T05:14:05;7.50;;;3.55;;
51238;SDS011;38154;47.548;18.828;2023-07-13T05:16:31;5.15;;;2.47;;
51238;SDS011;38154;47.548;18.828;2023-07-13T05:18:57;3.72;;;2.03;;
51238;SDS011;38154;47.548;18.828;2023-07-13T05:21:23;3.45;;;1.98;;
51238;SDS011;38154;47.548;18.828;2023-07-13T05:23:49;5.22;;;2.25;;
51238;SDS011;38154;47.548;18.828;2023-07-13T05:26:15;2.42;;;1.87;;
51238;SDS011;38154;47.548;18.828;2023-07-13T05:28:42;6.25;;;2.30;;
51238;SDS011;38154;47.548;18.828;2023-07-13T05:31:08;2.40;;;1.92;;
51238;SDS011;38154;47.548;18.828;2023-07-13T05:33:35;4.45;;;2.10;;
51238;SDS011;38154;47.548;18.828;2023-07-13T05:36:01;2.67;;;1.83;;
51238;SDS011;38154;47.548;18.828;2023-07-13T05:38:28;4.07;;;1.30;;
51238;SDS011;38154;47.548;18.828;2023-07-13T05:40:54;3.60;;;1.48;;
51238;SDS011;38154;47.548;18.828;2023-07-13T05:43:21;4.75;;;1.70;;
51238;SDS011;38154;47.548;18.828;2023-07-13T05:45:48;2.58;;;1.25;;
51238;SDS011;38154;47.548;18.828;2023-07-13T05:48:15;3.92;;;1.52;;
51238;SDS011;38154;47.548;18.828;2023-07-13T05:50:41;2.37;;;1.83;;
51238;SDS011;38154;47.548;18.828;2023-07-13T05:53:07;6.68;;;1.90;;
51238;SDS011;38154;47.548;18.828;2023-07-13T05:55:33;1.40;;;1.20;;
51238;SDS011;38154;47.548;18.828;2023-07-13T05:57:59;1.25;;;1.15;;
51238;SDS011;38154;47.548;18.828;2023-07-13T06:00:26;2.10;;;1.27;;
51238;SDS011;38154;47.548;18.828;2023-07-13T06:02:52;2.20;;;1.52;;
51238;SDS011;38154;47.548;18.828;2023-07-13T06:05:18;1.90;;;1.52;;
51238;SDS011;38154;47.548;18.828;2023-07-13T06:07:44;1.70;;;1.50;;
51238;SDS011;38154;47.548;18.828;2023-07-13T06:10:10;2.55;;;1.67;;
51238;SDS011;38154;47.548;18.828;2023-07-13T06:12:36;2.08;;;1.48;;
51238;SDS011;38154;47.548;18.828;2023-07-13T06:15:02;3.75;;;1.05;;
51238;SDS011;38154;47.548;18.828;2023-07-13T06:19:54;2.25;;;1.15;;
51238;SDS011;38154;47.548;18.828;2023-07-13T06:22:19;0.82;;;0.80;;
51238;SDS011;38154;47.548;18.828;2023-07-13T06:24:45;1.93;;;0.90;;
51238;SDS011;38154;47.548;18.828;2023-07-13T06:27:11;1.93;;;1.00;;
51238;SDS011;38154;47.548;18.828;2023-07-13T06:29:37;0.60;;;0.60;;
51238;SDS011;38154;47.548;18.828;2023-07-13T06:32:03;1.27;;;0.87;;
51238;SDS011;38154;47.548;18.828;2023-07-13T06:34:29;1.33;;;1.10;;
51238;SDS011;38154;47.548;18.828;2023-07-13T06:36:55;0.70;;;0.70;;
51238;SDS011;38154;47.548;18.828;2023-07-13T06:39:21;1.20;;;1.00;;
51238;SDS011;38154;47.548;18.828;2023-07-13T06:41:47;2.12;;;1.40;;
51238;SDS011;38154;47.548;18.828;2023-07-13T06:44:13;1.48;;;0.98;;
51238;SDS011;38154;47.548;18.828;2023-07-13T06:46:39;1.67;;;1.00;;
51238;SDS011;38154;47.548;18.828;2023-07-13T06:49:07;0.88;;;0.75;;
51238;SDS011;38154;47.548;18.828;2023-07-13T06:51:34;2.58;;;1.30;;
51238;SDS011;38154;47.548;18.828;2023-07-13T06:53:59;1.00;;;0.90;;
51238;SDS011;38154;47.548;18.828;2023-07-13T06:56:25;1.52;;;1.23;;
51238;SDS011;38154;47.548;18.828;2023-07-13T06:58:51;2.87;;;1.12;;
51238;SDS011;38154;47.548;18.828;2023-07-13T07:01:17;1.60;;;1.10;;
51238;SDS011;38154;47.548;18.828;2023-07-13T07:03:43;4.18;;;1.17;;
51238;SDS011;38154;47.548;18.828;2023-07-13T07:06:19;1.30;;;1.00;;
51238;SDS011;38154;47.548;18.828;2023-07-13T07:08:49;1.10;;;1.00;;
51238;SDS011;38154;47.548;18.828;2023-07-13T07:11:22;2.67;;;2.47;;
51238;SDS011;38154;47.548;18.828;2023-07-13T07:13:50;1.77;;;1.30;;
51238;SDS011;38154;47.548;18.828;2023-07-13T07:16:17;4.65;;;1.37;;
51238;SDS011;38154;47.548;18.828;2023-07-13T07:18:44;1.67;;;1.10;;
51238;SDS011;38154;47.548;18.828;2023-07-13T07:21:10;2.65;;;1.05;;
51238;SDS011;38154;47.548;18.828;2023-07-13T07:23:36;1.42;;;1.10;;
51238;SDS011;38154;47.548;18.828;2023-07-13T07:28:28;1.08;;;0.88;;
51238;SDS011;38154;47.548;18.828;2023-07-13T07:30:55;0.85;;;0.62;;
51238;SDS011;38154;47.548;18.828;2023-07-13T07:33:24;1.55;;;1.15;;
51238;SDS011;38154;47.548;18.828;2023-07-13T07:35:51;0.85;;;0.77;;
51238;SDS011;38154;47.548;18.828;2023-07-13T07:38:17;4.45;;;1.00;;
51238;SDS011;38154;47.548;18.828;2023-07-13T07:40:43;4.40;;;0.77;;
51238;SDS011;38154;47.548;18.828;2023-07-13T07:43:10;2.72;;;1.10;;
51238;SDS011;38154;47.548;18.828;2023-07-13T07:45:37;1.73;;;0.98;;
51238;SDS011;38154;47.548;18.828;2023-07-13T07:48:04;0.77;;;0.65;;
51238;SDS011;38154;47.548;18.828;2023-07-13T07:50:30;2.42;;;0.90;;
51238;SDS011;38154;47.548;18.828;2023-07-13T07:52:57;2.47;;;0.82;;
51238;SDS011;38154;47.548;18.828;2023-07-13T07:55:23;1.40;;;0.82;;
51238;SDS011;38154;47.548;18.828;2023-07-13T07:57:51;3.42;;;0.77;;
51238;SDS011;38154;47.548;18.828;2023-07-13T08:00:17;2.42;;;1.00;;
51238;SDS011;38154;47.548;18.828;2023-07-13T08:02:43;3.90;;;0.90;;
51238;SDS011;38154;47.548;18.828;2023-07-13T08:05:09;0.93;;;0.80;;
51238;SDS011;38154;47.548;18.828;2023-07-13T08:07:36;2.78;;;0.60;;
51238;SDS011;38154;47.548;18.828;2023-07-13T08:10:04;1.80;;;0.82;;
51238;SDS011;38154;47.548;18.828;2023-07-13T08:12:33;0.80;;;0.60;;
51238;SDS011;38154;47.548;18.828;2023-07-13T08:15:00;1.42;;;0.52;;
51238;SDS011;38154;47.548;18.828;2023-07-13T08:17:26;2.08;;;0.60;;
51238;SDS011;38154;47.548;18.828;2023-07-13T08:19:52;0.95;;;0.73;;
51238;SDS011;38154;47.548;18.828;2023-07-13T08:22:18;1.30;;;0.90;;
51238;SDS011;38154;47.548;18.828;2023-07-13T08:24:44;1.90;;;1.02;;
51238;SDS011;38154;47.548;18.828;2023-07-13T08:27:10;0.88;;;0.62;;
51238;SDS011;38154;47.548;18.828;2023-07-13T08:29:39;2.90;;;0.77;;
51238;SDS011;38154;47.548;18.828;2023-07-13T08:32:06;3.35;;;0.90;;
51238;SDS011;38154;47.548;18.828;2023-07-13T08:34:35;0.90;;;0.80;;
51238;SDS011;38154;47.548;18.828;2023-07-13T08:37:01;1.60;;;0.95;;
51238;SDS011;38154;47.548;18.828;2023-07-13T08:39:29;2.12;;;0.85;;
51238;SDS011;38154;47.548;18.828;2023-07-13T08:41:57;1.00;;;0.80;;
51238;SDS011;38154;47.548;18.828;2023-07-13T08:47:22;1.45;;;0.90;;
51238;SDS011;38154;47.548;18.828;2023-07-13T08:49:49;1.55;;;1.00;;
51238;SDS011;38154;47.548;18.828;2023-07-13T08:52:17;1.75;;;1.05;;
51238;SDS011;38154;47.548;18.828;2023-07-13T08:54:55;4.18;;;0.98;;
51238;SDS011;38154;47.548;18.828;2023-07-13T08:57:26;1.55;;;0.80;;
51238;SDS011;38154;47.548;18.828;2023-07-13T08:59:57;3.28;;;1.23;;
51238;SDS011;38154;47.548;18.828;2023-07-13T09:05:18;3.15;;;0.90;;
51238;SDS011;38154;47.548;18.828;2023-07-13T09:10:31;1.55;;;0.95;;
51238;SDS011;38154;47.548;18.828;2023-07-13T09:13:22;1.87;;;1.17;;
51238;SDS011;38154;47.548;18.828;2023-07-13T09:15:52;1.17;;;0.90;;
51238;SDS011;38154;47.548;18.828;2023-07-13T09:18:35;0.95;;;0.80;;
51238;SDS011;38154;47.548;18.828;2023-07-13T09:21:04;1.20;;;1.10;;
51238;SDS011;38154;47.548;18.828;2023-07-13T09:23:36;1.27;;;0.85;;
51238;SDS011;38154;47.548;18.828;2023-07-13T09:28:46;1.60;;;0.82;;
51238;SDS011;38154;47.548;18.828;2023-07-13T09:31:22;2.75;;;0.88;;
51238;SDS011;38154;47.548;18.828;2023-07-13T09:33:51;1.52;;;1.20;;
51238;SDS011;38154;47.548;18.828;2023-07-13T09:36:18;2.12;;;0.85;;
51238;SDS011;38154;47.548;18.828;2023-07-13T09:38:48;1.35;;;1.08;;
51238;SDS011;38154;47.548;18.828;2023-07-13T09:46:38;2.20;;;1.12;;
51238;SDS011;38154;47.548;18.828;2023-07-13T09:49:11;1.40;;;0.80;;
51238;SDS011;38154;47.548;18.828;2023-07-13T09:51:39;1.17;;;0.90;;
51238;SDS011;38154;47.548;18.828;2023-07-13T09:54:15;1.10;;;0.88;;
51238;SDS011;38154;47.548;18.828;2023-07-13T09:56:44;3.30;;;0.75;;
51238;SDS011;38154;47.548;18.828;2023-07-13T09:59:20;0.70;;;0.70;;
51238;SDS011;38154;47.548;18.828;2023-07-13T10:01:48;1.12;;;0.90;;
51238;SDS011;38154;47.548;18.828;2023-07-13T10:04:16;2.95;;;0.80;;
51238;SDS011;38154;47.548;18.828;2023-07-13T10:06:44;1.98;;;0.82;;
51238;SDS011;38154;47.548;18.828;2023-07-13T10:09:15;1.12;;;0.60;;
51238;SDS011;38154;47.548;18.828;2023-07-13T10:11:42;1.08;;;0.85;;
51238;SDS011;38154;47.548;18.828;2023-07-13T10:14:17;0.98;;;0.85;;
51238;SDS011;38154;47.548;18.828;2023-07-13T10:16:46;2.25;;;1.00;;
51238;SDS011;38154;47.548;18.828;2023-07-13T10:21:39;1.45;;;1.02;;
51238;SDS011;38154;47.548;18.828;2023-07-13T10:24:23;3.53;;;1.20;;
51238;SDS011;38154;47.548;18.828;2023-07-13T10:29:27;2.03;;;0.95;;
51238;SDS011;38154;47.548;18.828;2023-07-13T10:31:54;0.90;;;0.85;;
51238;SDS011;38154;47.548;18.828;2023-07-13T10:34:22;2.00;;;0.73;;
51238;SDS011;38154;47.548;18.828;2023-07-13T10:36:48;1.62;;;1.00;;
51238;SDS011;38154;47.548;18.828;2023-07-13T10:39:16;1.40;;;0.90;;
51238;SDS011;38154;47.548;18.828;2023-07-13T10:41:46;1.10;;;0.68;;
51238;SDS011;38154;47.548;18.828;2023-07-13T10:44:21;0.90;;;0.70;;
51238;SDS011;38154;47.548;18.828;2023-07-13T10:46:58;1.20;;;0.70;;
51238;SDS011;38154;47.548;18.828;2023-07-13T10:49:28;1.00;;;0.75;;
51238;SDS011;38154;47.548;18.828;2023-07-13T10:51:56;0.73;;;0.47;;
51238;SDS011;38154;47.548;18.828;2023-07-13T10:54:34;1.77;;;0.90;;
51238;SDS011;38154;47.548;18.828;2023-07-13T10:57:18;1.87;;;0.90;;
51238;SDS011;38154;47.548;18.828;2023-07-13T10:59:47;1.02;;;0.65;;
51238;SDS011;38154;47.548;18.828;2023-07-13T11:02:22;0.98;;;0.75;;
51238;SDS011;38154;47.548;18.828;2023-07-13T11:04:52;2.37;;;1.27;;
51238;SDS011;38154;47.548;18.828;2023-07-13T11:07:20;1.67;;;0.95;;
51238;SDS011;38154;47.548;18.828;2023-07-13T11:09:52;1.30;;;1.08;;
51238;SDS011;38154;47.548;18.828;2023-07-13T11:17:24;1.17;;;0.98;;
51238;SDS011;38154;47.548;18.828;2023-07-13T11:20:42;1.00;;;0.80;;
51238;SDS011;38154;47.548;18.828;2023-07-13T11:25:36;1.00;;;0.80;;
51238;SDS011;38154;47.548;18.828;2023-07-13T11:30:39;1.90;;;1.00;;
51238;SDS011;38154;47.548;18.828;2023-07-13T11:33:10;2.75;;;0.93;;
51238;SDS011;38154;47.548;18.828;2023-07-13T11:35:40;1.62;;;0.95;;
51238;SDS011;38154;47.548;18.828;2023-07-13T11:38:42;1.77;;;1.00;;
51238;SDS011;38154;47.548;18.828;2023-07-13T11:43:45;2.33;;;1.45;;
51238;SDS011;38154;47.548;18.828;2023-07-13T11:46:20;1.48;;;1.10;;
51238;SDS011;38154;47.548;18.828;2023-07-13T11:48:47;2.87;;;1.02;;
51238;SDS011;38154;47.548;18.828;2023-07-13T11:51:30;1.27;;;0.95;;
51238;SDS011;38154;47.548;18.828;2023-07-13T11:54:03;3.60;;;1.20;;
51238;SDS011;38154;47.548;18.828;2023-07-13T11:56:33;2.28;;;1.23;;
51238;SDS011;38154;47.548;18.828;2023-07-13T11:59:03;5.80;;;1.33;;
51238;SDS011;38154;47.548;18.828;2023-07-13T12:01:31;2.08;;;1.15;;
51238;SDS011;38154;47.548;18.828;2023-07-13T12:04:02;2.85;;;1.17;;
51238;SDS011;38154;47.548;18.828;2023-07-13T12:06:30;1.70;;;1.35;;
51238;SDS011;38154;47.548;18.828;2023-07-13T12:09:10;1.58;;;1.15;;
51238;SDS011;38154;47.548;18.828;2023-07-13T12:11:42;1.15;;;0.95;;
51238;SDS011;38154;47.548;18.828;2023-07-13T12:14:15;2.67;;;1.30;;
51238;SDS011;38154;47.548;18.828;2023-07-13T12:16:42;2.25;;;1.37;;
51238;SDS011;38154;47.548;18.828;2023-07-13T12:21:55;2.47;;;1.30;;
51238;SDS011;38154;47.548;18.828;2023-07-13T12:24:23;1.60;;;1.30;;
51238;SDS011;38154;47.548;18.828;2023-07-13T12:26:50;1.58;;;1.15;;
51238;SDS011;38154;47.548;18.828;2023-07-13T12:29:37;1.67;;;1.17;;
51238;SDS011;38154;47.548;18.828;2023-07-13T12:32:03;3.50;;;1.30;;
51238;SDS011;38154;47.548;18.828;2023-07-13T12:34:49;1.90;;;1.20;;
51238;SDS011;38154;47.548;18.828;2023-07-13T12:37:19;1.95;;;1.10;;
51238;SDS011;38154;47.548;18.828;2023-07-13T12:39:46;1.48;;;1.33;;
51238;SDS011;38154;47.548;18.828;2023-07-13T12:42:24;2.67;;;1.30;;
51238;SDS011;38154;47.548;18.828;2023-07-13T12:44:53;3.00;;;1.87;;
51238;SDS011;38154;47.548;18.828;2023-07-13T12:47:21;1.08;;;1.00;;
51238;SDS011;38154;47.548;18.828;2023-07-13T12:49:49;1.17;;;1.00;;
51238;SDS011;38154;47.548;18.828;2023-07-13T12:52:24;1.65;;;1.00;;
51238;SDS011;38154;47.548;18.828;2023-07-13T12:55:14;2.22;;;1.20;;
51238;SDS011;38154;47.548;18.828;2023-07-13T12:57:45;1.87;;;1.17;;
51238;SDS011;38154;47.548;18.828;2023-07-13T13:02:58;5.18;;;1.75;;
51238;SDS011;38154;47.548;18.828;2023-07-13T13:05:32;0.80;;;0.80;;
51238;SDS011;38154;47.548;18.828;2023-07-13T13:07:59;1.33;;;1.23;;
51238;SDS011;38154;47.548;18.828;2023-07-13T13:10:25;2.95;;;1.00;;
51238;SDS011;38154;47.548;18.828;2023-07-13T13:12:51;1.40;;;1.30;;
51238;SDS011;38154;47.548;18.828;2023-07-13T13:15:18;2.00;;;1.23;;
51238;SDS011;38154;47.548;18.828;2023-07-13T13:17:44;2.65;;;1.35;;
51238;SDS011;38154;47.548;18.828;2023-07-13T13:20:17;2.33;;;1.05;;
51238;SDS011;38154;47.548;18.828;2023-07-13T13:22:45;1.80;;;1.00;;
51238;SDS011;38154;47.548;18.828;2023-07-13T13:25:11;1.92;;;1.20;;
51238;SDS011;38154;47.548;18.828;2023-07-13T13:27:42;1.42;;;1.08;;
51238;SDS011;38154;47.548;18.828;2023-07-13T13:30:12;7.22;;;1.40;;
51238;SDS011;38154;47.548;18.828;2023-07-13T13:32:40;5.43;;;1.42;;
51238;SDS011;38154;47.548;18.828;2023-07-13T13:35:12;1.52;;;1.33;;
51238;SDS011;38154;47.548;18.828;2023-07-13T13:37:39;1.35;;;1.10;;
51238;SDS011;38154;47.548;18.828;2023-07-13T13:40:13;2.25;;;1.23;;
51238;SDS011;38154;47.548;18.828;2023-07-13T13:42:39;1.62;;;1.10;;
51238;SDS011;38154;47.548;18.828;2023-07-13T13:45:07;1.23;;;0.95;;
51238;SDS011;38154;47.548;18.828;2023-07-13T13:47:34;1.20;;;1.08;;
51238;SDS011;38154;47.548;18.828;2023-07-13T13:50:04;1.77;;;1.30;;
51238;SDS011;38154;47.548;18.828;2023-07-13T13:52:37;1.45;;;1.20;;
51238;SDS011;38154;47.548;18.828;2023-07-13T13:55:05;1.17;;;0.90;;
51238;SDS011;38154;47.548;18.828;2023-07-13T13:57:37;1.85;;;1.10;;
51238;SDS011;38154;47.548;18.828;2023-07-13T14:00:03;1.60;;;1.05;;
51238;SDS011;38154;47.548;18.828;2023-07-13T14:02:30;1.40;;;1.17;;
51238;SDS011;38154;47.548;18.828;2023-07-13T14:04:58;1.65;;;0.90;;
51238;SDS011;38154;47.548;18.828;2023-07-13T14:07:26;1.37;;;1.27;;
51238;SDS011;38154;47.548;18.828;2023-07-13T14:09:52;0.95;;;0.85;;
51238;SDS011;38154;47.548;18.828;2023-07-13T14:12:20;1.42;;;1.00;;
51238;SDS011;38154;47.548;18.828;2023-07-13T14:14:46;1.33;;;1.23;;
51238;SDS011;38154;47.548;18.828;2023-07-13T14:17:19;3.33;;;1.15;;
51238;SDS011;38154;47.548;18.828;2023-07-13T14:19:50;2.37;;;1.55;;
51238;SDS011;38154;47.548;18.828;2023-07-13T14:22:17;3.10;;;1.33;;
51238;SDS011;38154;47.548;18.828;2023-07-13T14:24:44;2.25;;;1.12;;
51238;SDS011;38154;47.548;18.828;2023-07-13T14:27:10;1.20;;;1.10;;
51238;SDS011;38154;47.548;18.828;2023-07-13T14:29:37;2.10;;;1.12;;
51238;SDS011;38154;47.548;18.828;2023-07-13T14:32:04;1.98;;;1.20;;
51238;SDS011;38154;47.548;18.828;2023-07-13T14:34:31;1.30;;;1.00;;
51238;SDS011;38154;47.548;18.828;2023-07-13T14:36:57;1.02;;;0.90;;
51238;SDS011;38154;47.548;18.828;2023-07-13T14:39:23;1.80;;;1.10;;
51238;SDS011;38154;47.548;18.828;2023-07-13T14:41:51;1.33;;;0.93;;
51238;SDS011;38154;47.548;18.828;2023-07-13T14:44:24;1.90;;;1.20;;
51238;SDS011;38154;47.548;18.828;2023-07-13T14:46:51;1.87;;;1.20;;
51238;SDS011;38154;47.548;18.828;2023-07-13T14:51:58;1.83;;;0.90;;
51238;SDS011;38154;47.548;18.828;2023-07-13T14:54:26;1.85;;;1.33;;
51238;SDS011;38154;47.548;18.828;2023-07-13T14:56:52;1.42;;;1.05;;
51238;SDS011;38154;47.548;18.828;2023-07-13T14:59:18;1.37;;;0.90;;
51238;SDS011;38154;47.548;18.828;2023-07-13T15:01:45;2.25;;;1.33;;
51238;SDS011;38154;47.548;18.828;2023-07-13T15:04:11;2.97;;;1.27;;
51238;SDS011;38154;47.548;18.828;2023-07-13T15:06:57;2.53;;;1.30;;
51238;SDS011;38154;47.548;18.828;2023-07-13T15:09:25;1.65;;;1.08;;
51238;SDS011;38154;47.548;18.828;2023-07-13T15:11:53;4.93;;;1.35;;
51238;SDS011;38154;47.548;18.828;2023-07-13T15:14:20;1.15;;;1.00;;
51238;SDS011;38154;47.548;18.828;2023-07-13T15:16:47;2.15;;;1.37;;
51238;SDS011;38154;47.548;18.828;2023-07-13T15:19:16;2.85;;;1.25;;
51238;SDS011;38154;47.548;18.828;2023-07-13T15:21:43;1.58;;;1.05;;
51238;SDS011;38154;47.548;18.828;2023-07-13T15:24:10;0.82;;;0.82;;
51238;SDS011;38154;47.548;18.828;2023-07-13T15:26:36;2.22;;;1.23;;
51238;SDS011;38154;47.548;18.828;2023-07-13T15:31:28;1.73;;;1.08;;
51238;SDS011;38154;47.548;18.828;2023-07-13T15:33:57;3.65;;;1.23;;
51238;SDS011;38154;47.548;18.828;2023-07-13T15:36:24;2.70;;;1.17;;
51238;SDS011;38154;47.548;18.828;2023-07-13T15:38:52;1.42;;;1.12;;
51238;SDS011;38154;47.548;18.828;2023-07-13T15:41:22;1.50;;;1.08;;
51238;SDS011;38154;47.548;18.828;2023-07-13T15:43:51;1.60;;;1.17;;
51238;SDS011;38154;47.548;18.828;2023-07-13T15:46:20;1.70;;;1.10;;
51238;SDS011;38154;47.548;18.828;2023-07-13T15:48:48;1.55;;;1.20;;
51238;SDS011;38154;47.548;18.828;2023-07-13T15:51:18;2.03;;;1.10;;
51238;SDS011;38154;47.548;18.828;2023-07-13T15:53:45;1.60;;;1.23;;
51238;SDS011;38154;47.548;18.828;2023-07-13T15:56:17;2.15;;;1.30;;
51238;SDS011;38154;47.548;18.828;2023-07-13T15:58:45;1.45;;;1.10;;